createdAt,value
2017-09-02T00:02:21.979Z,10.00
2017-09-02T00:04:49.644Z,10.00
2017-09-02T00:07:17.228Z,10.00
2017-09-02T00:09:45.580Z,10.00
2017-09-02T00:12:13.148Z,10.00
2017-09-02T00:14:40.765Z,10.10
2017-09-02T00:17:08.364Z,10.10
2017-09-02T00:19:36.034Z,10.00
2017-09-02T00:22:03.693Z,10.00
2017-09-02T00:24:31.356Z,10.00
2017-09-02T00:26:58.948Z,10.00
2017-09-02T00:29:27.280Z,10.00
2017-09-02T00:31:54.871Z,10.00
2017-09-02T00:34:24.836Z,10.10
2017-09-02T00:36:52.424Z,10.10
2017-09-02T00:39:19.993Z,10.10
2017-09-02T00:41:47.580Z,10.10
2017-09-02T00:44:15.587Z,10.10
2017-09-02T00:46:43.175Z,10.10
2017-09-02T00:49:10.847Z,10.10
2017-09-02T00:51:38.797Z,10.00
2017-09-02T00:54:06.367Z,10.00
2017-09-02T00:56:34.040Z,10.10
2017-09-02T00:59:01.704Z,10.00
2017-09-02T01:01:30.140Z,10.00
2017-09-02T01:03:57.848Z,10.00
2017-09-02T01:06:25.943Z,10.00
2017-09-02T01:08:53.586Z,10.00
2017-09-02T01:11:21.247Z,10.00
2017-09-02T01:13:49.604Z,9.90
2017-09-02T01:16:18.581Z,9.90
2017-09-02T01:18:47.677Z,9.90
2017-09-02T01:21:16.081Z,9.60
2017-09-02T01:23:44.141Z,9.60
2017-09-02T01:26:12.201Z,9.60
2017-09-02T01:28:39.801Z,9.50
2017-09-02T01:31:07.384Z,9.40
2017-09-02T01:33:35.708Z,9.30
2017-09-02T01:36:03.297Z,9.30
2017-09-02T01:38:30.972Z,9.30
2017-09-02T01:40:58.555Z,9.30
2017-09-02T01:43:26.203Z,9.20
2017-09-02T01:45:54.568Z,9.20
2017-09-02T01:48:23.056Z,9.20
2017-09-02T01:50:50.625Z,9.30
2017-09-02T01:53:18.273Z,9.40
2017-09-02T01:55:45.935Z,9.50
2017-09-02T01:58:13.597Z,9.60
2017-09-02T02:00:41.156Z,9.60
2017-09-02T02:03:08.820Z,9.70
2017-09-02T02:05:36.389Z,9.70
2017-09-02T02:08:04.143Z,9.70
2017-09-02T02:10:31.704Z,9.70
2017-09-02T02:13:00.085Z,9.70
2017-09-02T02:15:27.839Z,9.70
2017-09-02T02:17:55.544Z,9.70
2017-09-02T02:20:24.240Z,9.70
2017-09-02T02:22:51.866Z,9.60
2017-09-02T02:25:19.429Z,9.60
2017-09-02T02:27:47.089Z,9.60
2017-09-02T02:30:14.648Z,9.60
2017-09-02T02:32:42.308Z,9.60
2017-09-02T02:35:09.867Z,9.60
2017-09-02T02:37:37.537Z,9.70
2017-09-02T02:40:05.100Z,9.70
2017-09-02T02:42:32.701Z,9.80
2017-09-02T02:45:00.313Z,9.80
2017-09-02T02:47:28.173Z,9.90
2017-09-02T02:49:55.744Z,10.00
2017-09-02T02:52:24.840Z,10.10
2017-09-02T02:54:52.608Z,10.10
2017-09-02T02:57:20.265Z,10.10
2017-09-02T02:59:47.927Z,10.10
2017-09-02T03:02:15.493Z,10.10
2017-09-02T03:04:43.088Z,10.10
2017-09-02T03:07:10.656Z,10.20
2017-09-02T03:09:38.249Z,10.20
2017-09-02T03:12:05.841Z,10.20
2017-09-02T03:14:33.432Z,10.20
2017-09-02T03:17:01.000Z,10.30
2017-09-02T03:19:28.593Z,10.20
2017-09-02T03:21:56.165Z,10.20
2017-09-02T03:24:25.311Z,10.10
2017-09-02T03:26:52.933Z,10.10
2017-09-02T03:29:20.521Z,10.00
2017-09-02T03:31:48.088Z,10.00
2017-09-02T03:34:16.536Z,9.70
2017-09-02T03:36:44.206Z,9.70
2017-09-02T03:39:11.787Z,9.70
2017-09-02T03:41:39.423Z,9.60
2017-09-02T03:44:07.188Z,9.50
2017-09-02T03:46:34.756Z,9.40
2017-09-02T03:49:02.413Z,9.30
2017-09-02T03:51:30.016Z,9.30
2017-09-02T03:53:57.575Z,9.20
2017-09-02T03:56:26.736Z,9.10
2017-09-02T03:58:54.391Z,9.10
2017-09-02T04:01:22.051Z,9.10
2017-09-02T04:03:49.727Z,9.10
2017-09-02T04:06:17.588Z,9.10
2017-09-02T04:08:45.152Z,9.10
2017-09-02T04:11:12.716Z,9.20
2017-09-02T04:13:41.184Z,9.20
2017-09-02T04:16:08.744Z,9.30
2017-09-02T04:18:36.412Z,9.40
2017-09-02T04:21:04.072Z,9.40
2017-09-02T04:23:31.660Z,9.40
2017-09-02T04:26:00.014Z,9.40
2017-09-02T04:28:27.599Z,9.40
2017-09-02T04:30:55.169Z,9.50
2017-09-02T04:33:23.616Z,9.60
2017-09-02T04:35:51.276Z,9.60
2017-09-02T04:38:19.049Z,9.70
2017-09-02T04:40:46.893Z,9.70
2017-09-02T04:43:14.552Z,9.70
2017-09-02T04:45:42.240Z,9.70
2017-09-02T04:48:09.903Z,9.80
2017-09-02T04:50:37.872Z,9.80
2017-09-02T04:53:05.440Z,9.80
2017-09-02T04:55:33.036Z,9.80
2017-09-02T04:58:00.652Z,9.80
2017-09-02T05:00:28.237Z,9.90
2017-09-02T05:02:55.799Z,9.90
2017-09-02T05:05:24.932Z,9.90
2017-09-02T05:07:52.493Z,9.80
2017-09-02T05:10:20.092Z,9.80
2017-09-02T05:12:47.651Z,9.90
2017-09-02T05:15:15.239Z,10.00
2017-09-02T05:17:43.697Z,10.10
2017-09-02T05:20:11.454Z,10.10
2017-09-02T05:22:39.032Z,10.20
2017-09-02T05:25:06.693Z,10.30
2017-09-02T05:27:34.303Z,10.40
2017-09-02T05:30:01.917Z,10.50
2017-09-02T05:32:29.508Z,10.70
2017-09-02T05:34:57.128Z,10.90
2017-09-02T05:37:26.232Z,11.10
2017-09-02T05:39:53.896Z,11.20
2017-09-02T05:42:22.065Z,11.40
2017-09-02T05:44:49.733Z,11.60
2017-09-02T05:47:17.392Z,11.80
2017-09-02T05:49:45.054Z,12.00
2017-09-02T05:52:12.712Z,12.20
2017-09-02T05:54:40.321Z,12.50
2017-09-02T05:57:07.941Z,12.90
2017-09-02T05:59:35.531Z,13.20
2017-09-02T06:02:03.099Z,13.40
2017-09-02T06:04:30.688Z,13.30
2017-09-02T06:06:58.252Z,13.00
2017-09-02T06:09:25.856Z,13.20
2017-09-02T06:11:53.509Z,13.50
2017-09-02T06:14:21.099Z,14.10
2017-09-02T06:16:48.660Z,14.60
2017-09-02T06:19:17.008Z,15.50
2017-09-02T06:21:44.665Z,15.40
2017-09-02T06:24:12.328Z,15.80
2017-09-02T06:26:39.904Z,16.50
2017-09-02T06:29:08.283Z,17.60
2017-09-02T06:31:36.653Z,17.80
2017-09-02T06:34:04.316Z,17.80
2017-09-02T06:36:31.912Z,18.40
2017-09-02T06:38:59.540Z,19.00
2017-09-02T06:41:27.129Z,19.30
2017-09-02T06:43:54.691Z,19.80
2017-09-02T06:46:23.368Z,19.90
2017-09-02T06:48:50.933Z,19.70
2017-09-02T06:51:18.499Z,20.10
2017-09-02T06:53:46.099Z,20.90
2017-09-02T06:56:13.684Z,20.80
2017-09-02T06:58:41.349Z,21.00
2017-09-02T07:01:09.005Z,20.70
2017-09-02T07:03:36.774Z,20.80
2017-09-02T07:06:04.337Z,20.60
2017-09-02T07:08:31.992Z,20.60
2017-09-02T07:10:59.860Z,21.00
2017-09-02T07:13:27.523Z,21.60
2017-09-02T07:15:55.092Z,22.20
2017-09-02T07:18:24.896Z,23.50
2017-09-02T07:20:52.460Z,23.40
2017-09-02T07:23:20.048Z,24.10
2017-09-02T07:25:47.684Z,24.70
2017-09-02T07:28:15.449Z,25.80
2017-09-02T07:30:43.110Z,25.60
2017-09-02T07:33:11.492Z,25.20
2017-09-02T07:35:39.072Z,25.50
2017-09-02T07:38:06.656Z,25.90
2017-09-02T07:40:34.224Z,25.90
2017-09-02T07:43:01.808Z,25.80
2017-09-02T07:45:29.373Z,26.10
2017-09-02T07:47:57.084Z,26.10
2017-09-02T07:50:25.839Z,25.90
2017-09-02T07:52:53.461Z,26.00
2017-09-02T07:55:21.049Z,26.40
2017-09-02T07:57:48.629Z,26.30
2017-09-02T08:00:16.288Z,25.70
2017-09-02T08:02:43.853Z,24.90
2017-09-02T08:05:11.445Z,24.40
2017-09-02T08:07:39.016Z,24.30
2017-09-02T08:10:06.633Z,25.00
2017-09-02T08:12:34.192Z,25.40
2017-09-02T08:15:01.780Z,26.00
2017-09-02T08:17:29.372Z,26.90
2017-09-02T08:19:56.982Z,27.00
2017-09-02T08:22:26.585Z,25.80
2017-09-02T08:24:54.244Z,25.80
2017-09-02T08:27:21.812Z,25.20
2017-09-02T08:29:49.573Z,25.10
2017-09-02T08:32:17.232Z,25.50
2017-09-02T08:34:44.896Z,25.20
2017-09-02T08:37:12.480Z,25.20
2017-09-02T08:39:40.040Z,25.90
2017-09-02T08:42:07.680Z,26.20
2017-09-02T08:44:35.349Z,27.10
2017-09-02T08:47:03.599Z,28.40
2017-09-02T08:49:31.281Z,28.30
2017-09-02T08:51:58.872Z,29.00
2017-09-02T08:54:26.504Z,28.80
2017-09-02T08:56:54.069Z,29.10
2017-09-02T08:59:21.661Z,30.00
2017-09-02T09:01:49.237Z,30.90
2017-09-02T09:04:16.844Z,31.10
2017-09-02T09:06:44.409Z,30.40
2017-09-02T09:09:12.064Z,29.30
2017-09-02T09:11:39.743Z,29.00
2017-09-02T09:14:07.349Z,28.40
2017-09-02T09:16:34.960Z,28.10
2017-09-02T09:19:02.623Z,29.10
2017-09-02T09:21:30.281Z,29.80
2017-09-02T09:23:57.943Z,29.20
2017-09-02T09:26:26.638Z,26.80
2017-09-02T09:28:54.293Z,26.80
2017-09-02T09:31:21.963Z,28.80
2017-09-02T09:33:49.621Z,30.60
2017-09-02T09:36:17.214Z,32.40
2017-09-02T09:38:44.791Z,32.30
2017-09-02T09:41:12.380Z,33.10
2017-09-02T09:43:40.233Z,33.60
2017-09-02T09:46:08.241Z,33.90
2017-09-02T09:48:35.808Z,34.20
2017-09-02T09:51:03.373Z,32.90
2017-09-02T09:53:31.230Z,32.60
2017-09-02T09:55:58.893Z,33.10
2017-09-02T09:58:26.561Z,33.70
2017-09-02T10:00:54.212Z,32.40
2017-09-02T10:03:21.871Z,30.40
2017-09-02T10:05:49.455Z,31.30
2017-09-02T10:08:17.822Z,35.00
2017-09-02T10:10:45.416Z,34.90
2017-09-02T10:13:13.041Z,35.50
2017-09-02T10:15:40.706Z,36.50
2017-09-02T10:18:08.270Z,37.90
2017-09-02T10:20:35.855Z,38.40
2017-09-02T10:23:03.485Z,39.30
2017-09-02T10:25:31.077Z,38.50
2017-09-02T10:27:58.703Z,34.00
2017-09-02T10:30:26.372Z,29.70
2017-09-02T10:32:54.037Z,27.00
2017-09-02T10:35:21.635Z,25.20
2017-09-02T10:37:49.625Z,24.00
2017-09-02T10:40:17.187Z,23.10
2017-09-02T10:42:44.794Z,22.40
2017-09-02T10:45:13.063Z,22.20
2017-09-02T10:47:40.667Z,22.50
2017-09-02T10:50:08.233Z,22.20
2017-09-02T10:52:35.849Z,22.10
2017-09-02T10:55:03.508Z,21.60
2017-09-02T10:57:31.112Z,21.00
2017-09-02T10:59:58.729Z,20.30
2017-09-02T11:02:26.293Z,19.70
2017-09-02T11:04:53.880Z,19.30
2017-09-02T11:07:21.439Z,18.80
2017-09-02T11:09:49.796Z,18.40
2017-09-02T11:12:17.380Z,18.40
2017-09-02T11:14:45.008Z,18.30
2017-09-02T11:17:12.677Z,18.20
2017-09-02T11:19:40.276Z,18.20
2017-09-02T11:22:07.836Z,18.40
2017-09-02T11:24:35.401Z,18.60
2017-09-02T11:27:03.000Z,18.80
2017-09-02T11:29:30.680Z,18.90
2017-09-02T11:31:58.267Z,18.80
2017-09-02T11:34:26.016Z,19.20
2017-09-02T11:36:53.668Z,19.70
2017-09-02T11:39:21.253Z,20.20
2017-09-02T11:41:49.608Z,19.30
2017-09-02T11:44:17.197Z,19.30
2017-09-02T11:46:44.761Z,19.40
2017-09-02T11:49:12.391Z,19.10
2017-09-02T11:51:40.057Z,18.80
2017-09-02T11:54:07.645Z,18.90
2017-09-02T11:56:35.275Z,19.30
2017-09-02T11:59:02.940Z,19.80
2017-09-02T12:01:30.888Z,20.80
2017-09-02T12:03:58.472Z,21.90
2017-09-02T12:06:26.060Z,22.50
2017-09-02T12:08:54.408Z,24.80
2017-09-02T12:11:22.072Z,24.80
2017-09-02T12:13:49.635Z,25.70
2017-09-02T12:16:17.254Z,27.50
2017-09-02T12:18:44.857Z,29.60
2017-09-02T12:21:12.516Z,31.10
2017-09-02T12:23:40.184Z,31.60
2017-09-02T12:26:07.771Z,32.40
2017-09-02T12:28:35.405Z,32.30
2017-09-02T12:31:03.068Z,32.30
2017-09-02T12:33:30.644Z,32.70
2017-09-02T12:35:58.249Z,33.00
2017-09-02T12:38:25.948Z,33.00
2017-09-02T12:40:53.516Z,32.10
2017-09-02T12:43:23.305Z,31.30
2017-09-02T12:45:50.884Z,30.70
2017-09-02T12:48:18.469Z,30.30
2017-09-02T12:50:46.039Z,30.70
2017-09-02T12:53:13.664Z,30.80
2017-09-02T12:55:41.332Z,30.50
2017-09-02T12:58:08.923Z,30.20
2017-09-02T13:00:36.552Z,30.60
2017-09-02T13:03:04.228Z,30.60
2017-09-02T13:05:31.877Z,30.60
2017-09-02T13:07:59.540Z,31.40
2017-09-02T13:10:27.211Z,32.10
2017-09-02T13:12:54.864Z,32.70
2017-09-02T13:15:24.165Z,32.50
2017-09-02T13:17:52.049Z,31.90
2017-09-02T13:20:19.696Z,30.00
2017-09-02T13:22:47.328Z,29.60
2017-09-02T13:25:14.916Z,29.40
2017-09-02T13:27:42.589Z,29.20
2017-09-02T13:30:10.165Z,28.70
2017-09-02T13:32:37.813Z,29.10
2017-09-02T13:35:05.380Z,28.20
2017-09-02T13:37:32.965Z,27.50
2017-09-02T13:40:00.528Z,27.10
2017-09-02T13:42:28.112Z,26.70
2017-09-02T13:44:56.328Z,25.50
2017-09-02T13:47:25.500Z,24.70
2017-09-02T13:49:53.080Z,23.90
2017-09-02T13:52:20.656Z,23.40
2017-09-02T13:54:48.308Z,23.10
2017-09-02T13:57:15.969Z,23.00
2017-09-02T13:59:43.554Z,23.00
2017-09-02T14:02:11.113Z,22.70
2017-09-02T14:04:39.443Z,22.70
2017-09-02T14:07:07.032Z,22.70
2017-09-02T14:09:34.605Z,22.60
2017-09-02T14:12:02.956Z,22.50
2017-09-02T14:14:30.524Z,22.50
2017-09-02T14:16:58.264Z,22.20
2017-09-02T14:19:25.852Z,22.00
2017-09-02T14:21:53.412Z,21.60
2017-09-02T14:24:21.081Z,21.50
2017-09-02T14:26:48.645Z,21.30
2017-09-02T14:29:16.235Z,21.40
2017-09-02T14:31:43.837Z,21.40
2017-09-02T14:34:11.517Z,22.10
2017-09-02T14:36:39.189Z,22.80
2017-09-02T14:39:06.784Z,23.40
2017-09-02T14:41:34.404Z,24.20
2017-09-02T14:44:02.069Z,25.10
2017-09-02T14:46:29.732Z,25.60
2017-09-02T14:48:57.392Z,25.40
2017-09-02T14:51:25.816Z,24.20
2017-09-02T14:53:53.408Z,22.60
2017-09-02T14:56:20.977Z,21.20
2017-09-02T14:58:48.644Z,20.30
2017-09-02T15:01:16.204Z,19.70
2017-09-02T15:03:43.878Z,19.40
2017-09-02T15:06:11.828Z,19.20
2017-09-02T15:08:39.408Z,19.10
2017-09-02T15:11:07.005Z,19.10
2017-09-02T15:13:34.631Z,19.30
2017-09-02T15:16:02.304Z,19.60
2017-09-02T15:18:29.956Z,19.70
2017-09-02T15:20:57.540Z,20.00
2017-09-02T15:23:27.253Z,20.60
2017-09-02T15:25:54.845Z,20.60
2017-09-02T15:28:23.372Z,20.10
2017-09-02T15:30:51.141Z,19.50
2017-09-02T15:33:18.699Z,19.10
2017-09-02T15:35:46.364Z,18.80
2017-09-02T15:38:14.024Z,18.50
2017-09-02T15:40:41.701Z,18.10
2017-09-02T15:43:09.353Z,17.80
2017-09-02T15:45:37.296Z,17.60
2017-09-02T15:48:04.979Z,17.50
2017-09-02T15:50:32.581Z,17.50
2017-09-02T15:53:00.169Z,17.40
2017-09-02T15:55:27.745Z,17.30
2017-09-02T15:57:55.528Z,17.20
2017-09-02T16:00:24.111Z,17.00
2017-09-02T16:02:51.905Z,17.00
2017-09-02T16:05:19.540Z,17.00
2017-09-02T16:07:47.100Z,16.80
2017-09-02T16:10:18.718Z,16.70
2017-09-02T16:12:47.098Z,16.60
2017-09-02T16:15:14.689Z,16.50
2017-09-02T16:17:42.259Z,16.50
2017-09-02T16:20:09.920Z,16.40
2017-09-02T16:22:37.480Z,16.20
2017-09-02T16:25:05.069Z,16.10
2017-09-02T16:27:32.635Z,16.10
2017-09-02T16:30:00.229Z,15.90
2017-09-02T16:32:27.791Z,16.00
2017-09-02T16:34:55.487Z,15.90
2017-09-02T16:37:24.889Z,15.60
2017-09-02T16:39:52.656Z,15.60
2017-09-02T16:42:20.220Z,15.50
2017-09-02T16:44:47.783Z,15.50
2017-09-02T16:47:15.372Z,15.40
2017-09-02T16:49:42.939Z,15.40
2017-09-02T16:52:10.524Z,15.30
2017-09-02T16:54:38.096Z,15.30
2017-09-02T16:57:05.684Z,15.30
2017-09-02T16:59:33.256Z,15.30
2017-09-02T17:02:00.841Z,15.30
2017-09-02T17:04:28.401Z,15.30
2017-09-02T17:06:55.989Z,15.30
2017-09-02T17:09:25.696Z,15.10
2017-09-02T17:11:53.280Z,15.10
2017-09-02T17:14:20.844Z,15.10
2017-09-02T17:16:48.428Z,15.10
2017-09-02T17:19:15.991Z,15.10
2017-09-02T17:21:43.584Z,15.20
2017-09-02T17:24:11.143Z,15.10
2017-09-02T17:26:38.744Z,15.10
2017-09-02T17:29:06.335Z,15.10
2017-09-02T17:31:33.931Z,15.10
2017-09-02T17:34:01.516Z,15.10
2017-09-02T17:36:29.504Z,15.10
2017-09-02T17:38:57.072Z,15.10
2017-09-02T17:41:26.100Z,15.10
2017-09-02T17:43:53.836Z,15.10
2017-09-02T17:46:21.501Z,15.10
2017-09-02T17:48:49.092Z,15.00
2017-09-02T17:51:16.662Z,15.00
2017-09-02T17:53:44.247Z,14.90
2017-09-02T17:56:11.821Z,14.70
2017-09-02T17:58:39.414Z,14.50
2017-09-02T18:01:07.052Z,14.40
2017-09-02T18:03:34.924Z,14.30
2017-09-02T18:06:02.584Z,14.10
2017-09-02T18:08:30.157Z,13.90
2017-09-02T18:10:57.808Z,13.80
2017-09-02T18:13:25.980Z,13.70
2017-09-02T18:15:53.748Z,13.60
2017-09-02T18:18:21.316Z,13.50
2017-09-02T18:20:48.972Z,13.50
2017-09-02T18:23:16.800Z,13.40
2017-09-02T18:25:44.600Z,13.40
2017-09-02T18:28:12.161Z,13.50
2017-09-02T18:30:39.724Z,13.50
2017-09-02T18:33:07.388Z,13.40
2017-09-02T18:35:34.949Z,13.40
2017-09-02T18:38:02.611Z,13.30
2017-09-02T18:40:30.271Z,13.30
2017-09-02T18:42:57.932Z,13.20
2017-09-02T18:45:26.028Z,13.20
2017-09-02T18:47:53.613Z,13.20
2017-09-02T18:50:21.209Z,13.10
2017-09-02T18:52:48.992Z,13.10
2017-09-02T18:55:16.564Z,13.00
2017-09-02T18:57:44.132Z,13.00
2017-09-02T19:00:12.483Z,12.70
2017-09-02T19:02:40.048Z,12.70
2017-09-02T19:05:07.636Z,12.60
2017-09-02T19:07:35.972Z,12.50
2017-09-02T19:10:03.570Z,12.40
2017-09-02T19:12:31.940Z,12.50
2017-09-02T19:14:59.593Z,12.40
2017-09-02T19:17:27.167Z,12.50
2017-09-02T19:19:54.781Z,12.50
2017-09-02T19:22:24.057Z,12.40
2017-09-02T19:24:51.743Z,12.40
2017-09-02T19:27:19.336Z,12.30
2017-09-02T19:29:47.006Z,12.30
2017-09-02T19:32:14.591Z,12.30
2017-09-02T19:34:42.227Z,12.30
2017-09-02T19:37:09.817Z,12.30
2017-09-02T19:39:37.419Z,12.40
2017-09-02T19:42:05.116Z,12.40
2017-09-02T19:44:32.681Z,12.50
2017-09-02T19:47:00.297Z,12.50
2017-09-02T19:49:27.864Z,12.50
2017-09-02T19:51:55.452Z,12.40
2017-09-02T19:54:23.219Z,12.30
2017-09-02T19:56:51.024Z,12.20
2017-09-02T19:59:18.584Z,12.10
2017-09-02T20:01:46.211Z,12.00
2017-09-02T20:04:13.800Z,12.00
2017-09-02T20:06:41.368Z,12.00
2017-09-02T20:09:08.952Z,11.90
2017-09-02T20:11:36.526Z,11.90
2017-09-02T20:14:04.217Z,11.90
2017-09-02T20:16:31.784Z,11.90
2017-09-02T20:18:59.432Z,11.80
2017-09-02T20:21:27.105Z,11.80
2017-09-02T20:23:54.668Z,11.70
2017-09-02T20:26:24.060Z,11.70
2017-09-02T20:28:51.790Z,11.60
2017-09-02T20:31:19.356Z,11.60
2017-09-02T20:33:47.881Z,11.50
2017-09-02T20:36:15.467Z,11.50
2017-09-02T20:38:43.044Z,11.40
2017-09-02T20:41:10.865Z,11.40
2017-09-02T20:43:38.485Z,11.40
2017-09-02T20:46:06.073Z,11.40
2017-09-02T20:48:33.639Z,11.40
2017-09-02T20:51:01.228Z,11.40
2017-09-02T20:53:28.868Z,11.30
2017-09-02T20:55:56.524Z,11.30
2017-09-02T20:58:25.228Z,11.30
2017-09-02T21:00:52.876Z,11.30
2017-09-02T21:03:20.540Z,11.30
2017-09-02T21:05:48.200Z,11.20
2017-09-02T21:08:15.867Z,11.20
2017-09-02T21:10:43.654Z,11.20
2017-09-02T21:13:11.216Z,11.20
2017-09-02T21:15:38.780Z,11.20
2017-09-02T21:18:06.369Z,11.20
2017-09-02T21:20:33.971Z,11.20
2017-09-02T21:23:01.557Z,11.20
2017-09-02T21:25:29.119Z,11.20
2017-09-02T21:27:56.715Z,11.20
2017-09-02T21:30:27.492Z,11.20
2017-09-02T21:32:55.257Z,11.20
2017-09-02T21:35:24.148Z,11.20
2017-09-02T21:37:51.736Z,11.10
2017-09-02T21:40:19.372Z,11.10
2017-09-02T21:42:47.546Z,11.10
2017-09-02T21:45:15.208Z,11.10
2017-09-02T21:47:42.986Z,11.00
2017-09-02T21:50:10.549Z,11.00
2017-09-02T21:52:38.192Z,10.90
2017-09-02T21:55:05.860Z,10.90
2017-09-02T21:57:33.437Z,10.80
2017-09-02T22:00:02.629Z,10.80
2017-09-02T22:02:30.286Z,10.80
2017-09-02T22:04:57.944Z,10.80
2017-09-02T22:07:25.824Z,10.70
2017-09-02T22:09:53.473Z,10.80
2017-09-02T22:12:21.131Z,10.80
2017-09-02T22:14:48.800Z,10.80
2017-09-02T22:17:16.359Z,10.80
2017-09-02T22:19:44.026Z,10.80
2017-09-02T22:22:11.687Z,10.90
2017-09-02T22:24:39.348Z,10.80
2017-09-02T22:27:07.568Z,10.80
2017-09-02T22:29:35.185Z,10.80
2017-09-02T22:32:02.753Z,10.70
2017-09-02T22:34:30.341Z,10.70
2017-09-02T22:36:57.925Z,10.70
2017-09-02T22:39:25.975Z,10.70
2017-09-02T22:41:53.876Z,10.80
2017-09-02T22:44:21.459Z,10.70
2017-09-02T22:46:49.016Z,10.70
2017-09-02T22:49:16.627Z,10.70
2017-09-02T22:51:44.252Z,10.70
2017-09-02T22:54:11.812Z,10.70
2017-09-02T22:56:39.400Z,10.70
2017-09-02T22:59:07.033Z,10.70
2017-09-02T23:01:34.624Z,10.70
2017-09-02T23:04:02.976Z,10.80
2017-09-02T23:06:30.645Z,10.70
2017-09-02T23:08:58.376Z,10.80
2017-09-02T23:11:26.788Z,10.90
2017-09-02T23:13:54.444Z,10.90
2017-09-02T23:16:22.109Z,10.90
2017-09-02T23:18:49.772Z,10.90
2017-09-02T23:21:17.428Z,10.80
2017-09-02T23:23:45.098Z,10.80
2017-09-02T23:26:12.775Z,10.70
2017-09-02T23:28:41.127Z,10.70
2017-09-02T23:31:08.795Z,10.70
2017-09-02T23:33:36.472Z,10.70
2017-09-02T23:36:04.121Z,10.60
2017-09-02T23:38:31.724Z,10.60
2017-09-02T23:40:59.316Z,10.60
2017-09-02T23:43:27.296Z,10.60
2017-09-02T23:45:54.978Z,10.60
2017-09-02T23:48:23.091Z,10.60
2017-09-02T23:50:50.721Z,10.60
2017-09-02T23:53:18.287Z,10.60
2017-09-02T23:55:45.860Z,10.60
2017-09-02T23:58:13.604Z,10.60
